sensor_id;sensor_type;location;lat;lon;timestamp;P1;durP1;ratioP1;P2;durP2;ratioP2
45522;SDS011;31254;51.680;5.394;2022-12-17T00:02:21;56.83;;;27.27;;
45522;SDS011;31254;51.680;5.394;2022-12-17T00:05:07;56.33;;;26.70;;
45522;SDS011;31254;51.680;5.394;2022-12-17T00:07:55;58.77;;;28.47;;
45522;SDS011;31254;51.680;5.394;2022-12-17T00:10:43;56.87;;;28.30;;
45522;SDS011;31254;51.680;5.394;2022-12-17T00:13:28;51.27;;;26.80;;
45522;SDS011;31254;51.680;5.394;2022-12-17T00:16:15;55.30;;;28.27;;
45522;SDS011;31254;51.680;5.394;2022-12-17T00:19:00;54.67;;;28.33;;
45522;SDS011;31254;51.680;5.394;2022-12-17T00:21:45;55.80;;;27.73;;
45522;SDS011;31254;51.680;5.394;2022-12-17T00:24:31;52.10;;;26.50;;
45522;SDS011;31254;51.680;5.394;2022-12-17T00:27:17;52.60;;;27.17;;
45522;SDS011;31254;51.680;5.394;2022-12-17T00:30:05;50.43;;;25.97;;
45522;SDS011;31254;51.680;5.394;2022-12-17T00:32:53;61.83;;;28.57;;
45522;SDS011;31254;51.680;5.394;2022-12-17T00:35:38;52.83;;;26.20;;
45522;SDS011;31254;51.680;5.394;2022-12-17T00:38:23;48.33;;;25.23;;
45522;SDS011;31254;51.680;5.394;2022-12-17T00:41:08;58.03;;;27.37;;
45522;SDS011;31254;51.680;5.394;2022-12-17T00:43:53;59.43;;;27.90;;
45522;SDS011;31254;51.680;5.394;2022-12-17T00:46:59;52.23;;;26.23;;
45522;SDS011;31254;51.680;5.394;2022-12-17T00:49:43;55.17;;;27.47;;
45522;SDS011;31254;51.680;5.394;2022-12-17T00:52:28;56.70;;;28.10;;
45522;SDS011;31254;51.680;5.394;2022-12-17T00:55:14;56.97;;;28.03;;
45522;SDS011;31254;51.680;5.394;2022-12-17T00:57:59;56.03;;;27.27;;
45522;SDS011;31254;51.680;5.394;2022-12-17T01:00:44;55.97;;;27.50;;
45522;SDS011;31254;51.680;5.394;2022-12-17T01:03:32;54.53;;;27.50;;
45522;SDS011;31254;51.680;5.394;2022-12-17T01:06:18;58.60;;;28.97;;
45522;SDS011;31254;51.680;5.394;2022-12-17T01:09:03;54.47;;;27.63;;
45522;SDS011;31254;51.680;5.394;2022-12-17T01:11:48;56.20;;;28.33;;
45522;SDS011;31254;51.680;5.394;2022-12-17T01:14:33;52.57;;;26.40;;
45522;SDS011;31254;51.680;5.394;2022-12-17T01:17:20;57.63;;;29.63;;
45522;SDS011;31254;51.680;5.394;2022-12-17T01:20:05;54.10;;;27.17;;
45522;SDS011;31254;51.680;5.394;2022-12-17T01:22:50;57.30;;;28.03;;
45522;SDS011;31254;51.680;5.394;2022-12-17T01:25:35;59.23;;;27.90;;
45522;SDS011;31254;51.680;5.394;2022-12-17T01:28:23;56.47;;;28.63;;
45522;SDS011;31254;51.680;5.394;2022-12-17T01:31:11;53.10;;;28.20;;
45522;SDS011;31254;51.680;5.394;2022-12-17T01:34:00;60.57;;;28.40;;
45522;SDS011;31254;51.680;5.394;2022-12-17T01:36:46;55.73;;;28.07;;
45522;SDS011;31254;51.680;5.394;2022-12-17T01:39:31;52.70;;;27.67;;
45522;SDS011;31254;51.680;5.394;2022-12-17T01:42:16;59.07;;;28.57;;
45522;SDS011;31254;51.680;5.394;2022-12-17T01:45:02;59.00;;;28.83;;
45522;SDS011;31254;51.680;5.394;2022-12-17T01:47:50;55.03;;;27.73;;
45522;SDS011;31254;51.680;5.394;2022-12-17T01:50:42;59.10;;;28.57;;
45522;SDS011;31254;51.680;5.394;2022-12-17T01:53:32;54.03;;;29.20;;
45522;SDS011;31254;51.680;5.394;2022-12-17T01:56:21;60.47;;;29.00;;
45522;SDS011;31254;51.680;5.394;2022-12-17T01:59:07;56.93;;;29.60;;
45522;SDS011;31254;51.680;5.394;2022-12-17T02:01:53;56.07;;;28.30;;
45522;SDS011;31254;51.680;5.394;2022-12-17T02:04:41;54.43;;;27.43;;
45522;SDS011;31254;51.680;5.394;2022-12-17T02:13:27;53.30;;;26.73;;
45522;SDS011;31254;51.680;5.394;2022-12-17T02:16:26;55.23;;;27.13;;
45522;SDS011;31254;51.680;5.394;2022-12-17T02:22:13;54.50;;;27.37;;
45522;SDS011;31254;51.680;5.394;2022-12-17T02:25:46;56.80;;;27.40;;
45522;SDS011;31254;51.680;5.394;2022-12-17T02:28:40;51.80;;;26.17;;
45522;SDS011;31254;51.680;5.394;2022-12-17T02:31:30;59.70;;;27.97;;
45522;SDS011;31254;51.680;5.394;2022-12-17T02:34:17;57.50;;;28.10;;
45522;SDS011;31254;51.680;5.394;2022-12-17T02:37:02;55.13;;;27.23;;
45522;SDS011;31254;51.680;5.394;2022-12-17T02:39:47;54.80;;;26.57;;
45522;SDS011;31254;51.680;5.394;2022-12-17T02:42:35;47.80;;;24.47;;
45522;SDS011;31254;51.680;5.394;2022-12-17T02:45:20;60.23;;;26.27;;
45522;SDS011;31254;51.680;5.394;2022-12-17T02:48:07;49.97;;;25.60;;
45522;SDS011;31254;51.680;5.394;2022-12-17T02:50:55;54.63;;;26.77;;
45522;SDS011;31254;51.680;5.394;2022-12-17T02:53:43;51.70;;;24.77;;
45522;SDS011;31254;51.680;5.394;2022-12-17T02:56:29;53.23;;;25.70;;
45522;SDS011;31254;51.680;5.394;2022-12-17T02:59:15;54.47;;;26.40;;
45522;SDS011;31254;51.680;5.394;2022-12-17T03:02:03;48.50;;;24.30;;
45522;SDS011;31254;51.680;5.394;2022-12-17T03:04:48;51.03;;;24.77;;
45522;SDS011;31254;51.680;5.394;2022-12-17T03:07:53;49.43;;;24.83;;
45522;SDS011;31254;51.680;5.394;2022-12-17T03:10:41;46.10;;;24.23;;
45522;SDS011;31254;51.680;5.394;2022-12-17T03:13:27;51.30;;;25.60;;
45522;SDS011;31254;51.680;5.394;2022-12-17T03:16:14;60.37;;;26.23;;
45522;SDS011;31254;51.680;5.394;2022-12-17T03:19:03;51.03;;;26.07;;
45522;SDS011;31254;51.680;5.394;2022-12-17T03:21:48;52.27;;;25.57;;
45522;SDS011;31254;51.680;5.394;2022-12-17T03:24:36;52.63;;;26.27;;
45522;SDS011;31254;51.680;5.394;2022-12-17T03:27:21;55.77;;;26.47;;
45522;SDS011;31254;51.680;5.394;2022-12-17T03:30:06;52.83;;;24.73;;
45522;SDS011;31254;51.680;5.394;2022-12-17T03:32:52;50.60;;;24.47;;
45522;SDS011;31254;51.680;5.394;2022-12-17T03:35:37;54.17;;;26.13;;
45522;SDS011;31254;51.680;5.394;2022-12-17T03:38:22;54.30;;;26.57;;
45522;SDS011;31254;51.680;5.394;2022-12-17T03:41:07;53.97;;;27.27;;
45522;SDS011;31254;51.680;5.394;2022-12-17T03:43:52;48.17;;;25.57;;
45522;SDS011;31254;51.680;5.394;2022-12-17T03:46:37;51.50;;;25.33;;
45522;SDS011;31254;51.680;5.394;2022-12-17T03:49:22;57.77;;;25.17;;
45522;SDS011;31254;51.680;5.394;2022-12-17T03:52:07;48.70;;;24.50;;
45522;SDS011;31254;51.680;5.394;2022-12-17T03:54:52;49.13;;;24.60;;
45522;SDS011;31254;51.680;5.394;2022-12-17T03:57:40;48.63;;;24.47;;
45522;SDS011;31254;51.680;5.394;2022-12-17T04:00:25;54.03;;;25.53;;
45522;SDS011;31254;51.680;5.394;2022-12-17T04:03:10;54.23;;;25.23;;
45522;SDS011;31254;51.680;5.394;2022-12-17T04:05:55;49.17;;;24.90;;
45522;SDS011;31254;51.680;5.394;2022-12-17T04:08:40;49.70;;;24.23;;
45522;SDS011;31254;51.680;5.394;2022-12-17T04:11:25;53.33;;;24.87;;
45522;SDS011;31254;51.680;5.394;2022-12-17T04:14:10;46.90;;;24.73;;
45522;SDS011;31254;51.680;5.394;2022-12-17T04:16:55;47.13;;;23.33;;
45522;SDS011;31254;51.680;5.394;2022-12-17T04:19:40;61.17;;;27.63;;
45522;SDS011;31254;51.680;5.394;2022-12-17T04:22:26;60.43;;;27.57;;
45522;SDS011;31254;51.680;5.394;2022-12-17T04:25:11;58.03;;;25.73;;
45522;SDS011;31254;51.680;5.394;2022-12-17T04:27:56;57.87;;;27.63;;
45522;SDS011;31254;51.680;5.394;2022-12-17T04:30:41;58.07;;;27.10;;
45522;SDS011;31254;51.680;5.394;2022-12-17T04:33:27;58.47;;;26.50;;
45522;SDS011;31254;51.680;5.394;2022-12-17T04:36:15;61.90;;;28.30;;
45522;SDS011;31254;51.680;5.394;2022-12-17T04:39:00;65.33;;;28.33;;
45522;SDS011;31254;51.680;5.394;2022-12-17T04:41:45;62.77;;;27.37;;
45522;SDS011;31254;51.680;5.394;2022-12-17T04:44:30;61.43;;;27.87;;
45522;SDS011;31254;51.680;5.394;2022-12-17T04:47:17;59.33;;;28.17;;
45522;SDS011;31254;51.680;5.394;2022-12-17T04:50:02;68.70;;;29.20;;
45522;SDS011;31254;51.680;5.394;2022-12-17T04:52:48;61.97;;;29.00;;
45522;SDS011;31254;51.680;5.394;2022-12-17T04:55:33;67.27;;;29.07;;
45522;SDS011;31254;51.680;5.394;2022-12-17T04:58:18;67.43;;;29.57;;
45522;SDS011;31254;51.680;5.394;2022-12-17T05:01:05;65.80;;;30.93;;
45522;SDS011;31254;51.680;5.394;2022-12-17T05:03:54;63.67;;;28.53;;
45522;SDS011;31254;51.680;5.394;2022-12-17T05:06:39;66.50;;;29.80;;
45522;SDS011;31254;51.680;5.394;2022-12-17T05:09:24;70.50;;;29.77;;
45522;SDS011;31254;51.680;5.394;2022-12-17T05:12:09;61.90;;;29.03;;
45522;SDS011;31254;51.680;5.394;2022-12-17T05:14:57;63.30;;;29.90;;
45522;SDS011;31254;51.680;5.394;2022-12-17T05:17:42;67.80;;;29.60;;
45522;SDS011;31254;51.680;5.394;2022-12-17T05:20:29;66.43;;;30.50;;
45522;SDS011;31254;51.680;5.394;2022-12-17T05:23:15;68.13;;;29.37;;
45522;SDS011;31254;51.680;5.394;2022-12-17T05:29:03;70.03;;;29.17;;
45522;SDS011;31254;51.680;5.394;2022-12-17T05:31:48;71.47;;;30.47;;
45522;SDS011;31254;51.680;5.394;2022-12-17T05:34:34;68.53;;;29.87;;
45522;SDS011;31254;51.680;5.394;2022-12-17T05:37:19;68.80;;;30.27;;
45522;SDS011;31254;51.680;5.394;2022-12-17T05:40:07;68.00;;;31.27;;
45522;SDS011;31254;51.680;5.394;2022-12-17T05:42:56;66.87;;;29.20;;
45522;SDS011;31254;51.680;5.394;2022-12-17T05:45:44;64.90;;;30.53;;
45522;SDS011;31254;51.680;5.394;2022-12-17T05:48:30;68.60;;;27.90;;
45522;SDS011;31254;51.680;5.394;2022-12-17T05:51:16;66.27;;;30.00;;
45522;SDS011;31254;51.680;5.394;2022-12-17T05:54:04;61.70;;;29.73;;
45522;SDS011;31254;51.680;5.394;2022-12-17T05:56:50;66.67;;;28.33;;
45522;SDS011;31254;51.680;5.394;2022-12-17T05:59:36;66.57;;;27.77;;
45522;SDS011;31254;51.680;5.394;2022-12-17T06:02:21;60.20;;;28.50;;
45522;SDS011;31254;51.680;5.394;2022-12-17T06:05:07;57.33;;;27.50;;
45522;SDS011;31254;51.680;5.394;2022-12-17T06:08:03;57.33;;;27.10;;
45522;SDS011;31254;51.680;5.394;2022-12-17T06:10:50;53.00;;;24.60;;
45522;SDS011;31254;51.680;5.394;2022-12-17T06:13:35;65.77;;;27.53;;
45522;SDS011;31254;51.680;5.394;2022-12-17T06:16:20;54.07;;;26.40;;
45522;SDS011;31254;51.680;5.394;2022-12-17T06:19:05;53.87;;;25.33;;
45522;SDS011;31254;51.680;5.394;2022-12-17T06:21:51;54.27;;;24.77;;
45522;SDS011;31254;51.680;5.394;2022-12-17T06:24:36;59.40;;;26.30;;
45522;SDS011;31254;51.680;5.394;2022-12-17T06:27:21;52.87;;;25.03;;
45522;SDS011;31254;51.680;5.394;2022-12-17T06:30:07;55.00;;;25.10;;
45522;SDS011;31254;51.680;5.394;2022-12-17T06:33:07;54.07;;;25.73;;
45522;SDS011;31254;51.680;5.394;2022-12-17T06:35:54;57.17;;;24.07;;
45522;SDS011;31254;51.680;5.394;2022-12-17T06:38:47;57.50;;;24.40;;
45522;SDS011;31254;51.680;5.394;2022-12-17T06:41:33;54.00;;;24.87;;
45522;SDS011;31254;51.680;5.394;2022-12-17T06:44:25;62.67;;;26.23;;
45522;SDS011;31254;51.680;5.394;2022-12-17T06:47:10;60.27;;;25.10;;
45522;SDS011;31254;51.680;5.394;2022-12-17T06:49:55;54.33;;;24.97;;
45522;SDS011;31254;51.680;5.394;2022-12-17T06:52:40;56.40;;;26.37;;
45522;SDS011;31254;51.680;5.394;2022-12-17T06:55:25;55.30;;;26.03;;
45522;SDS011;31254;51.680;5.394;2022-12-17T06:58:10;56.93;;;26.53;;
45522;SDS011;31254;51.680;5.394;2022-12-17T07:00:55;55.30;;;25.23;;
45522;SDS011;31254;51.680;5.394;2022-12-17T07:03:40;57.93;;;25.90;;
45522;SDS011;31254;51.680;5.394;2022-12-17T07:06:28;63.70;;;26.13;;
45522;SDS011;31254;51.680;5.394;2022-12-17T07:09:16;56.97;;;26.17;;
45522;SDS011;31254;51.680;5.394;2022-12-17T07:12:04;58.03;;;25.73;;
45522;SDS011;31254;51.680;5.394;2022-12-17T07:14:49;51.00;;;25.10;;
45522;SDS011;31254;51.680;5.394;2022-12-17T07:17:34;61.00;;;27.03;;
45522;SDS011;31254;51.680;5.394;2022-12-17T07:20:19;56.60;;;25.77;;
45522;SDS011;31254;51.680;5.394;2022-12-17T07:23:04;63.50;;;26.50;;
45522;SDS011;31254;51.680;5.394;2022-12-17T07:25:49;60.93;;;26.77;;
45522;SDS011;31254;51.680;5.394;2022-12-17T07:28:35;62.13;;;27.13;;
45522;SDS011;31254;51.680;5.394;2022-12-17T07:31:22;62.47;;;27.83;;
45522;SDS011;31254;51.680;5.394;2022-12-17T07:34:10;62.63;;;27.13;;
45522;SDS011;31254;51.680;5.394;2022-12-17T07:36:58;65.23;;;26.57;;
45522;SDS011;31254;51.680;5.394;2022-12-17T07:39:46;63.83;;;27.10;;
45522;SDS011;31254;51.680;5.394;2022-12-17T07:42:31;68.53;;;27.13;;
45522;SDS011;31254;51.680;5.394;2022-12-17T07:45:16;61.30;;;26.13;;
45522;SDS011;31254;51.680;5.394;2022-12-17T07:48:04;57.63;;;26.00;;
45522;SDS011;31254;51.680;5.394;2022-12-17T07:50:49;54.30;;;25.57;;
45522;SDS011;31254;51.680;5.394;2022-12-17T07:53:35;64.50;;;26.83;;
45522;SDS011;31254;51.680;5.394;2022-12-17T07:56:21;59.17;;;26.77;;
45522;SDS011;31254;51.680;5.394;2022-12-17T07:59:06;59.93;;;26.03;;
45522;SDS011;31254;51.680;5.394;2022-12-17T08:01:51;61.03;;;26.97;;
45522;SDS011;31254;51.680;5.394;2022-12-17T08:04:37;63.27;;;26.53;;
45522;SDS011;31254;51.680;5.394;2022-12-17T08:07:22;53.83;;;25.10;;
45522;SDS011;31254;51.680;5.394;2022-12-17T08:10:07;58.27;;;26.80;;
45522;SDS011;31254;51.680;5.394;2022-12-17T08:13:04;63.10;;;26.63;;
45522;SDS011;31254;51.680;5.394;2022-12-17T08:15:52;54.63;;;24.37;;
45522;SDS011;31254;51.680;5.394;2022-12-17T08:18:38;56.13;;;26.33;;
45522;SDS011;31254;51.680;5.394;2022-12-17T08:21:23;56.27;;;24.70;;
45522;SDS011;31254;51.680;5.394;2022-12-17T08:24:08;62.80;;;26.13;;
45522;SDS011;31254;51.680;5.394;2022-12-17T08:26:53;59.13;;;25.00;;
45522;SDS011;31254;51.680;5.394;2022-12-17T08:29:39;55.67;;;24.83;;
45522;SDS011;31254;51.680;5.394;2022-12-17T08:32:28;57.57;;;26.17;;
45522;SDS011;31254;51.680;5.394;2022-12-17T08:35:13;57.90;;;26.17;;
45522;SDS011;31254;51.680;5.394;2022-12-17T08:38:01;59.10;;;26.47;;
45522;SDS011;31254;51.680;5.394;2022-12-17T08:40:48;58.90;;;25.87;;
45522;SDS011;31254;51.680;5.394;2022-12-17T08:43:33;57.60;;;24.53;;
45522;SDS011;31254;51.680;5.394;2022-12-17T08:46:18;56.83;;;25.67;;
45522;SDS011;31254;51.680;5.394;2022-12-17T08:49:04;57.80;;;25.27;;
45522;SDS011;31254;51.680;5.394;2022-12-17T08:51:49;60.57;;;25.97;;
45522;SDS011;31254;51.680;5.394;2022-12-17T08:54:34;63.27;;;26.20;;
45522;SDS011;31254;51.680;5.394;2022-12-17T08:57:19;65.30;;;26.93;;
45522;SDS011;31254;51.680;5.394;2022-12-17T09:00:05;61.47;;;27.07;;
45522;SDS011;31254;51.680;5.394;2022-12-17T09:02:55;64.97;;;27.23;;
45522;SDS011;31254;51.680;5.394;2022-12-17T09:05:44;57.63;;;24.70;;
45522;SDS011;31254;51.680;5.394;2022-12-17T09:08:29;62.83;;;26.43;;
45522;SDS011;31254;51.680;5.394;2022-12-17T09:11:15;62.50;;;26.33;;
45522;SDS011;31254;51.680;5.394;2022-12-17T09:14:03;64.20;;;26.20;;
45522;SDS011;31254;51.680;5.394;2022-12-17T09:16:48;62.77;;;26.23;;
45522;SDS011;31254;51.680;5.394;2022-12-17T09:19:34;72.85;;;35.50;;
45522;SDS011;31254;51.680;5.394;2022-12-17T09:22:19;64.27;;;28.40;;
45522;SDS011;31254;51.680;5.394;2022-12-17T09:25:04;65.63;;;25.67;;
45522;SDS011;31254;51.680;5.394;2022-12-17T09:27:49;60.07;;;26.67;;
45522;SDS011;31254;51.680;5.394;2022-12-17T09:30:34;64.70;;;26.87;;
45522;SDS011;31254;51.680;5.394;2022-12-17T09:33:19;60.70;;;25.67;;
45522;SDS011;31254;51.680;5.394;2022-12-17T09:36:06;58.63;;;25.47;;
45522;SDS011;31254;51.680;5.394;2022-12-17T09:38:51;58.13;;;23.97;;
45522;SDS011;31254;51.680;5.394;2022-12-17T09:41:41;55.57;;;24.03;;
45522;SDS011;31254;51.680;5.394;2022-12-17T09:44:36;58.50;;;23.77;;
45522;SDS011;31254;51.680;5.394;2022-12-17T09:50:21;61.07;;;24.67;;
45522;SDS011;31254;51.680;5.394;2022-12-17T09:53:12;60.47;;;23.50;;
45522;SDS011;31254;51.680;5.394;2022-12-17T09:56:15;54.57;;;24.10;;
45522;SDS011;31254;51.680;5.394;2022-12-17T09:59:05;64.40;;;25.63;;
45522;SDS011;31254;51.680;5.394;2022-12-17T10:01:50;71.73;;;25.77;;
45522;SDS011;31254;51.680;5.394;2022-12-17T10:04:40;65.97;;;25.80;;
45522;SDS011;31254;51.680;5.394;2022-12-17T10:07:33;66.23;;;25.60;;
45522;SDS011;31254;51.680;5.394;2022-12-17T10:10:26;78.93;;;26.73;;
45522;SDS011;31254;51.680;5.394;2022-12-17T10:13:16;69.83;;;25.97;;
45522;SDS011;31254;51.680;5.394;2022-12-17T10:19:16;68.07;;;25.73;;
45522;SDS011;31254;51.680;5.394;2022-12-17T10:22:14;63.13;;;25.07;;
45522;SDS011;31254;51.680;5.394;2022-12-17T10:25:25;70.20;;;26.60;;
45522;SDS011;31254;51.680;5.394;2022-12-17T10:28:11;65.00;;;27.03;;
45522;SDS011;31254;51.680;5.394;2022-12-17T10:31:06;67.53;;;26.53;;
45522;SDS011;31254;51.680;5.394;2022-12-17T10:33:54;72.20;;;27.13;;
45522;SDS011;31254;51.680;5.394;2022-12-17T10:36:45;66.10;;;25.50;;
45522;SDS011;31254;51.680;5.394;2022-12-17T10:39:32;62.90;;;27.40;;
45522;SDS011;31254;51.680;5.394;2022-12-17T10:42:28;80.03;;;25.93;;
45522;SDS011;31254;51.680;5.394;2022-12-17T10:45:31;79.40;;;27.53;;
45522;SDS011;31254;51.680;5.394;2022-12-17T10:48:26;66.33;;;26.77;;
45522;SDS011;31254;51.680;5.394;2022-12-17T10:51:31;66.60;;;26.53;;
45522;SDS011;31254;51.680;5.394;2022-12-17T10:54:30;63.97;;;25.87;;
45522;SDS011;31254;51.680;5.394;2022-12-17T11:00:22;65.87;;;26.83;;
45522;SDS011;31254;51.680;5.394;2022-12-17T11:03:24;66.77;;;27.53;;
45522;SDS011;31254;51.680;5.394;2022-12-17T11:06:16;62.23;;;26.50;;
45522;SDS011;31254;51.680;5.394;2022-12-17T11:09:20;66.43;;;26.53;;
45522;SDS011;31254;51.680;5.394;2022-12-17T11:12:49;58.50;;;26.40;;
45522;SDS011;31254;51.680;5.394;2022-12-17T11:18:35;65.87;;;27.07;;
45522;SDS011;31254;51.680;5.394;2022-12-17T11:21:37;69.17;;;27.40;;
45522;SDS011;31254;51.680;5.394;2022-12-17T11:24:42;59.37;;;26.50;;
45522;SDS011;31254;51.680;5.394;2022-12-17T11:27:33;64.07;;;26.67;;
45522;SDS011;31254;51.680;5.394;2022-12-17T11:30:25;59.70;;;24.90;;
45522;SDS011;31254;51.680;5.394;2022-12-17T11:33:33;58.97;;;26.70;;
45522;SDS011;31254;51.680;5.394;2022-12-17T11:36:25;65.10;;;27.03;;
45522;SDS011;31254;51.680;5.394;2022-12-17T11:51:24;56.87;;;27.07;;
45522;SDS011;31254;51.680;5.394;2022-12-17T12:00:28;60.67;;;25.93;;
45522;SDS011;31254;51.680;5.394;2022-12-17T12:03:25;61.60;;;25.70;;
45522;SDS011;31254;51.680;5.394;2022-12-17T12:06:23;71.20;;;27.97;;
45522;SDS011;31254;51.680;5.394;2022-12-17T12:09:23;61.97;;;26.43;;
45522;SDS011;31254;51.680;5.394;2022-12-17T12:12:19;65.23;;;27.40;;
45522;SDS011;31254;51.680;5.394;2022-12-17T12:34:29;60.80;;;26.30;;
45522;SDS011;31254;51.680;5.394;2022-12-17T12:37:17;63.20;;;27.80;;
45522;SDS011;31254;51.680;5.394;2022-12-17T12:40:23;66.83;;;28.93;;
45522;SDS011;31254;51.680;5.394;2022-12-17T12:43:21;63.43;;;28.77;;
45522;SDS011;31254;51.680;5.394;2022-12-17T12:49:15;62.70;;;27.83;;
45522;SDS011;31254;51.680;5.394;2022-12-17T12:52:07;57.63;;;25.83;;
45522;SDS011;31254;51.680;5.394;2022-12-17T12:54:55;60.30;;;26.70;;
45522;SDS011;31254;51.680;5.394;2022-12-17T12:57:56;67.67;;;28.23;;
45522;SDS011;31254;51.680;5.394;2022-12-17T13:11:44;62.47;;;27.03;;
45522;SDS011;31254;51.680;5.394;2022-12-17T13:14:21;66.33;;;28.43;;
45522;SDS011;31254;51.680;5.394;2022-12-17T13:16:53;63.07;;;26.87;;
45522;SDS011;31254;51.680;5.394;2022-12-17T13:19:37;65.03;;;29.60;;
45522;SDS011;31254;51.680;5.394;2022-12-17T13:24:54;67.17;;;28.33;;
45522;SDS011;31254;51.680;5.394;2022-12-17T13:32:48;64.40;;;27.53;;
45522;SDS011;31254;51.680;5.394;2022-12-17T13:43:14;95.10;;;30.23;;
45522;SDS011;31254;51.680;5.394;2022-12-17T13:45:49;74.33;;;28.67;;
45522;SDS011;31254;51.680;5.394;2022-12-17T13:48:22;61.53;;;26.80;;
45522;SDS011;31254;51.680;5.394;2022-12-17T13:50:57;86.73;;;29.60;;
45522;SDS011;31254;51.680;5.394;2022-12-17T13:53:28;81.10;;;30.17;;
45522;SDS011;31254;51.680;5.394;2022-12-17T13:55:59;83.27;;;28.67;;
45522;SDS011;31254;51.680;5.394;2022-12-17T13:58:58;82.93;;;29.77;;
45522;SDS011;31254;51.680;5.394;2022-12-17T14:01:42;65.77;;;27.40;;
45522;SDS011;31254;51.680;5.394;2022-12-17T14:04:17;62.57;;;27.10;;
45522;SDS011;31254;51.680;5.394;2022-12-17T14:06:51;65.40;;;28.90;;
45522;SDS011;31254;51.680;5.394;2022-12-17T14:09:23;66.20;;;29.50;;
45522;SDS011;31254;51.680;5.394;2022-12-17T14:11:57;61.53;;;28.03;;
45522;SDS011;31254;51.680;5.394;2022-12-17T14:14:43;63.30;;;29.53;;
45522;SDS011;31254;51.680;5.394;2022-12-17T14:17:15;63.10;;;28.20;;
45522;SDS011;31254;51.680;5.394;2022-12-17T14:20:01;65.33;;;29.47;;
45522;SDS011;31254;51.680;5.394;2022-12-17T14:22:42;64.43;;;28.90;;
45522;SDS011;31254;51.680;5.394;2022-12-17T14:25:26;63.53;;;27.17;;
45522;SDS011;31254;51.680;5.394;2022-12-17T14:27:58;66.37;;;27.80;;
45522;SDS011;31254;51.680;5.394;2022-12-17T14:30:47;62.30;;;26.83;;
45522;SDS011;31254;51.680;5.394;2022-12-17T14:33:37;63.80;;;26.70;;
45522;SDS011;31254;51.680;5.394;2022-12-17T14:36:07;66.43;;;27.30;;
45522;SDS011;31254;51.680;5.394;2022-12-17T14:38:55;58.67;;;26.50;;
45522;SDS011;31254;51.680;5.394;2022-12-17T14:41:25;57.63;;;23.97;;
45522;SDS011;31254;51.680;5.394;2022-12-17T14:47:25;61.83;;;25.47;;
45522;SDS011;31254;51.680;5.394;2022-12-17T14:52:49;57.00;;;25.20;;
45522;SDS011;31254;51.680;5.394;2022-12-17T14:55:33;65.17;;;25.67;;
45522;SDS011;31254;51.680;5.394;2022-12-17T15:03:25;66.37;;;27.60;;
45522;SDS011;31254;51.680;5.394;2022-12-17T15:06:02;69.37;;;27.23;;
45522;SDS011;31254;51.680;5.394;2022-12-17T15:08:38;68.20;;;27.27;;
45522;SDS011;31254;51.680;5.394;2022-12-17T15:11:08;68.53;;;29.90;;
45522;SDS011;31254;51.680;5.394;2022-12-17T15:13:37;76.97;;;29.37;;
45522;SDS011;31254;51.680;5.394;2022-12-17T15:16:04;72.53;;;30.87;;
45522;SDS011;31254;51.680;5.394;2022-12-17T15:18:31;66.67;;;27.70;;
45522;SDS011;31254;51.680;5.394;2022-12-17T15:20:57;71.43;;;29.90;;
45522;SDS011;31254;51.680;5.394;2022-12-17T15:23:24;66.37;;;29.63;;
45522;SDS011;31254;51.680;5.394;2022-12-17T15:25:51;73.50;;;32.07;;
45522;SDS011;31254;51.680;5.394;2022-12-17T15:28:20;77.40;;;32.00;;
45522;SDS011;31254;51.680;5.394;2022-12-17T15:30:47;69.23;;;28.30;;
45522;SDS011;31254;51.680;5.394;2022-12-17T15:33:14;69.13;;;29.10;;
45522;SDS011;31254;51.680;5.394;2022-12-17T15:35:44;67.40;;;28.43;;
45522;SDS011;31254;51.680;5.394;2022-12-17T15:38:11;68.23;;;27.27;;
45522;SDS011;31254;51.680;5.394;2022-12-17T15:40:42;70.73;;;27.87;;
45522;SDS011;31254;51.680;5.394;2022-12-17T15:43:10;91.93;;;29.50;;
45522;SDS011;31254;51.680;5.394;2022-12-17T15:45:37;81.17;;;31.43;;
45522;SDS011;31254;51.680;5.394;2022-12-17T15:48:06;74.83;;;30.63;;
45522;SDS011;31254;51.680;5.394;2022-12-17T15:50:33;74.77;;;29.43;;
45522;SDS011;31254;51.680;5.394;2022-12-17T15:52:59;88.47;;;29.43;;
45522;SDS011;31254;51.680;5.394;2022-12-17T15:55:26;82.03;;;30.30;;
45522;SDS011;31254;51.680;5.394;2022-12-17T15:57:53;76.67;;;30.20;;
45522;SDS011;31254;51.680;5.394;2022-12-17T16:00:21;73.77;;;29.40;;
45522;SDS011;31254;51.680;5.394;2022-12-17T16:02:47;65.83;;;26.50;;
45522;SDS011;31254;51.680;5.394;2022-12-17T16:05:15;74.47;;;28.90;;
45522;SDS011;31254;51.680;5.394;2022-12-17T16:07:44;70.27;;;29.27;;
45522;SDS011;31254;51.680;5.394;2022-12-17T16:10:11;67.63;;;28.40;;
45522;SDS011;31254;51.680;5.394;2022-12-17T16:12:38;91.10;;;29.93;;
45522;SDS011;31254;51.680;5.394;2022-12-17T16:15:10;73.40;;;28.13;;
45522;SDS011;31254;51.680;5.394;2022-12-17T16:17:40;70.40;;;27.97;;
45522;SDS011;31254;51.680;5.394;2022-12-17T16:20:07;70.23;;;27.63;;
45522;SDS011;31254;51.680;5.394;2022-12-17T16:22:37;68.53;;;27.13;;
45522;SDS011;31254;51.680;5.394;2022-12-17T16:25:03;68.57;;;26.27;;
45522;SDS011;31254;51.680;5.394;2022-12-17T16:27:30;68.83;;;28.67;;
45522;SDS011;31254;51.680;5.394;2022-12-17T16:29:57;61.03;;;26.53;;
45522;SDS011;31254;51.680;5.394;2022-12-17T16:32:23;72.07;;;27.90;;
45522;SDS011;31254;51.680;5.394;2022-12-17T16:34:52;76.90;;;30.30;;
45522;SDS011;31254;51.680;5.394;2022-12-17T16:37:23;79.57;;;28.87;;
45522;SDS011;31254;51.680;5.394;2022-12-17T16:39:49;72.50;;;27.30;;
45522;SDS011;31254;51.680;5.394;2022-12-17T16:42:24;69.70;;;27.07;;
45522;SDS011;31254;51.680;5.394;2022-12-17T16:44:51;71.83;;;28.17;;
45522;SDS011;31254;51.680;5.394;2022-12-17T16:47:23;74.40;;;28.40;;
45522;SDS011;31254;51.680;5.394;2022-12-17T16:49:50;76.00;;;27.10;;
45522;SDS011;31254;51.680;5.394;2022-12-17T16:52:16;66.47;;;25.33;;
45522;SDS011;31254;51.680;5.394;2022-12-17T16:54:43;71.03;;;27.60;;
45522;SDS011;31254;51.680;5.394;2022-12-17T16:57:09;87.43;;;27.47;;
45522;SDS011;31254;51.680;5.394;2022-12-17T16:59:36;85.23;;;27.53;;
45522;SDS011;31254;51.680;5.394;2022-12-17T17:02:03;68.53;;;26.80;;
45522;SDS011;31254;51.680;5.394;2022-12-17T17:04:30;72.03;;;29.30;;
45522;SDS011;31254;51.680;5.394;2022-12-17T17:06:59;75.30;;;29.03;;
45522;SDS011;31254;51.680;5.394;2022-12-17T17:09:25;84.33;;;30.53;;
45522;SDS011;31254;51.680;5.394;2022-12-17T17:11:55;75.70;;;28.50;;
45522;SDS011;31254;51.680;5.394;2022-12-17T17:14:24;81.00;;;27.50;;
45522;SDS011;31254;51.680;5.394;2022-12-17T17:16:51;77.47;;;28.70;;
45522;SDS011;31254;51.680;5.394;2022-12-17T17:19:18;73.80;;;27.70;;
45522;SDS011;31254;51.680;5.394;2022-12-17T17:21:49;78.40;;;30.63;;
45522;SDS011;31254;51.680;5.394;2022-12-17T17:24:20;75.40;;;28.80;;
45522;SDS011;31254;51.680;5.394;2022-12-17T17:26:49;76.30;;;27.50;;
45522;SDS011;31254;51.680;5.394;2022-12-17T17:29:19;83.57;;;29.93;;
45522;SDS011;31254;51.680;5.394;2022-12-17T17:31:46;76.80;;;28.80;;
45522;SDS011;31254;51.680;5.394;2022-12-17T17:34:33;69.27;;;27.10;;
45522;SDS011;31254;51.680;5.394;2022-12-17T17:36:59;80.53;;;29.33;;
45522;SDS011;31254;51.680;5.394;2022-12-17T17:39:26;76.63;;;27.47;;
45522;SDS011;31254;51.680;5.394;2022-12-17T17:41:52;75.83;;;26.97;;